CheckWX is a tool to help pilots better visualize weather data.  It is not intended as a substitute for an official pre-flight weather briefing.

16:27:47 UTC

KDMO METAR
Sedalia Regional Airport
Sedalia, Missouri, USA
Current

35 mins ago

KDMO 161553Z AUTO 22004KT 10SM CLR 29/22 A3013 RMK AO2 SLP194 T02890222
Observed
Sep-16 @ 15:53 UTC
Wind
  • 220° at 4 KTS
Visibility
10 SM
Flight Rules
VFR
Cloud Levels
  • Clear skies
Temperature
29°C / 84°F
Dewpoint
22°C / 72°F
Heat Index
32°C / 89°F
Humidity
66%
Altimeter
30.13" Hg
Pressure
1020.32 hPa
Previous

2 hours ago

KDMO 161453Z AUTO 23004KT 10SM CLR 27/22 A3014 RMK AO2 SLP196 T02670222 51008
Observed
Sep-16 @ 14:53 UTC
Wind
  • 230° at 4 KTS
Visibility
10 SM
Flight Rules
VFR
Cloud Levels
  • Clear skies
Temperature
27°C / 81°F
Dewpoint
22°C / 72°F
Heat Index
29°C / 85°F
Humidity
74%
Altimeter
30.14" Hg
Pressure
1020.62 hPa
Previous

3 hours ago

KDMO 161353Z AUTO 21005KT 10SM CLR 24/22 A3013 RMK AO2 SLP196 T02390217
Observed
Sep-16 @ 13:53 UTC
Wind
  • 210° at 5 KTS
Visibility
10 SM
Flight Rules
VFR
Cloud Levels
  • Clear skies
Temperature
24°C / 75°F
Dewpoint
22°C / 72°F
Humidity
89%
Altimeter
30.13" Hg
Pressure
1020.32 hPa